createdAt,value
2018-05-03T00:00:47.809Z,18.70
2018-05-03T00:03:15.988Z,18.75
2018-05-03T00:05:44.162Z,19.10
2018-05-03T00:08:12.318Z,18.47
2018-05-03T00:10:40.491Z,15.70
2018-05-03T00:13:08.677Z,13.40
2018-05-03T00:15:37.041Z,11.05
2018-05-03T00:18:05.212Z,10.67
2018-05-03T00:20:33.391Z,10.05
2018-05-03T00:23:01.585Z,9.75
2018-05-03T00:25:29.789Z,8.85
2018-05-03T00:27:57.931Z,8.63
2018-05-03T00:30:26.103Z,8.02
2018-05-03T00:32:54.273Z,7.70
2018-05-03T00:35:22.476Z,7.85
2018-05-03T00:37:50.636Z,8.00
2018-05-03T00:40:18.813Z,8.40
2018-05-03T00:42:46.963Z,8.48
2018-05-03T00:45:15.142Z,8.13
2018-05-03T00:47:43.316Z,8.32
2018-05-03T00:50:11.469Z,8.40
2018-05-03T00:52:39.663Z,8.60
2018-05-03T00:55:07.855Z,8.70
2018-05-03T00:57:36.055Z,8.38
2018-05-03T01:00:04.204Z,8.83
2018-05-03T01:02:32.366Z,8.30
2018-05-03T01:05:00.524Z,8.45
2018-05-03T01:07:28.699Z,8.43
2018-05-03T01:09:57.179Z,8.35
2018-05-03T01:12:25.350Z,8.55
2018-05-03T01:14:53.543Z,8.40
2018-05-03T01:17:21.690Z,8.77
2018-05-03T01:19:49.858Z,8.70
2018-05-03T01:22:18.021Z,8.32
2018-05-03T01:24:46.225Z,8.07
2018-05-03T01:27:14.384Z,8.50
2018-05-03T01:29:42.553Z,8.93
2018-05-03T01:32:10.744Z,8.23
2018-05-03T01:34:38.902Z,8.60
2018-05-03T01:37:07.074Z,8.50
2018-05-03T01:39:35.570Z,8.45
2018-05-03T01:42:03.774Z,8.73
2018-05-03T01:44:31.922Z,9.10
2018-05-03T01:47:02.551Z,8.88
2018-05-03T01:49:30.723Z,8.68
2018-05-03T01:51:58.905Z,8.25
2018-05-03T01:54:27.337Z,8.40
2018-05-03T01:56:55.484Z,8.13
2018-05-03T01:59:23.650Z,8.77
2018-05-03T02:01:51.830Z,9.48
2018-05-03T02:04:19.984Z,8.95
2018-05-03T02:06:48.205Z,9.02
2018-05-03T02:09:16.333Z,9.52
2018-05-03T02:11:45.329Z,8.77
2018-05-03T02:14:13.503Z,8.98
2018-05-03T02:16:41.676Z,9.13
2018-05-03T02:19:10.172Z,8.95
2018-05-03T02:21:38.313Z,9.23
2018-05-03T02:24:06.489Z,8.98
2018-05-03T02:26:34.639Z,8.45
2018-05-03T02:29:02.831Z,9.27
2018-05-03T02:31:30.985Z,9.25
2018-05-03T02:33:59.137Z,9.68
2018-05-03T02:36:27.337Z,9.07
2018-05-03T02:38:55.522Z,9.15
2018-05-03T02:41:23.707Z,9.13
2018-05-03T02:43:52.698Z,9.27
2018-05-03T02:46:20.881Z,8.05
2018-05-03T02:48:49.059Z,8.40
2018-05-03T02:51:17.222Z,9.10
2018-05-03T02:53:45.394Z,8.40
2018-05-03T02:56:13.585Z,8.75
2018-05-03T02:59:26.663Z,9.63
2018-05-03T03:02:13.968Z,10.68
2018-05-03T03:05:42.073Z,9.00
2018-05-03T03:08:29.508Z,9.40
2018-05-03T03:11:22.768Z,9.50
2018-05-03T03:14:16.599Z,9.15
2018-05-03T03:17:40.378Z,8.98
2018-05-03T03:20:47.431Z,9.15
2018-05-03T03:24:11.473Z,8.60
2018-05-03T03:27:40.347Z,7.90
2018-05-03T03:31:37.081Z,8.25
2018-05-03T03:34:05.858Z,8.60
2018-05-03T03:37:17.715Z,8.43
2018-05-03T03:40:25.378Z,9.63
2018-05-03T03:43:05.313Z,9.80
2018-05-03T03:45:33.561Z,8.88
2018-05-03T03:48:01.623Z,9.20
2018-05-03T03:50:29.792Z,8.45
2018-05-03T03:52:57.963Z,8.02
2018-05-03T03:55:26.142Z,8.32
2018-05-03T03:57:54.511Z,9.27
2018-05-03T04:00:22.653Z,9.55
2018-05-03T04:02:50.823Z,9.27
2018-05-03T04:05:18.987Z,8.98
2018-05-03T04:07:47.165Z,8.85
2018-05-03T04:10:15.335Z,8.33
2018-05-03T04:12:43.522Z,8.38
2018-05-03T04:15:11.716Z,8.05
2018-05-03T04:18:17.497Z,8.37
2018-05-03T04:21:41.626Z,8.45
2018-05-03T04:24:49.953Z,7.78
2018-05-03T04:27:18.156Z,7.70
2018-05-03T04:29:46.318Z,8.03
2018-05-03T04:32:14.495Z,7.85
2018-05-03T04:34:42.655Z,8.10
2018-05-03T04:37:10.850Z,7.87
2018-05-03T04:39:39.020Z,7.50
2018-05-03T04:42:07.198Z,8.00
2018-05-03T04:44:35.376Z,7.95
2018-05-03T04:47:03.633Z,7.35
2018-05-03T04:49:31.700Z,7.55
2018-05-03T04:51:59.879Z,7.43
2018-05-03T04:54:28.047Z,6.87
2018-05-03T04:56:56.219Z,6.90
2018-05-03T04:59:24.394Z,7.15
2018-05-03T05:01:52.568Z,7.03
2018-05-03T05:04:20.719Z,7.18
2018-05-03T05:06:48.891Z,7.20
2018-05-03T05:09:17.025Z,7.15
2018-05-03T05:11:45.179Z,7.43
2018-05-03T05:14:13.353Z,7.10
2018-05-03T05:16:41.508Z,7.00
2018-05-03T05:19:09.705Z,7.10
2018-05-03T05:21:37.840Z,7.43
2018-05-03T05:24:06.089Z,7.12
2018-05-03T05:26:34.212Z,6.97
2018-05-03T05:29:02.700Z,7.25
2018-05-03T05:31:30.879Z,6.62
2018-05-03T05:33:59.049Z,7.68
2018-05-03T05:36:27.224Z,8.38
2018-05-03T05:38:55.548Z,8.55
2018-05-03T05:41:23.577Z,8.48
2018-05-03T05:43:51.928Z,8.98
2018-05-03T05:46:20.128Z,9.57
2018-05-03T05:48:48.293Z,9.02
2018-05-03T05:51:16.521Z,9.35
2018-05-03T05:53:44.648Z,9.52
2018-05-03T05:56:12.816Z,10.02
2018-05-03T05:58:40.969Z,9.52
2018-05-03T06:01:09.160Z,9.63
2018-05-03T06:03:37.296Z,9.60
2018-05-03T06:06:05.473Z,8.73
2018-05-03T06:08:33.635Z,8.85
2018-05-03T06:11:01.817Z,8.85
2018-05-03T06:13:29.989Z,8.40
2018-05-03T06:15:58.185Z,7.95
2018-05-03T06:18:26.394Z,8.00
2018-05-03T06:20:54.570Z,8.05
2018-05-03T06:23:22.721Z,7.97
2018-05-03T06:25:50.902Z,7.72
2018-05-03T06:28:19.082Z,7.43
2018-05-03T06:30:47.268Z,7.37
2018-05-03T06:33:15.487Z,7.10
2018-05-03T06:35:43.675Z,7.40
2018-05-03T06:38:11.861Z,6.75
2018-05-03T06:40:40.616Z,6.40
2018-05-03T06:43:08.823Z,6.07
2018-05-03T06:45:36.997Z,5.90
2018-05-03T06:48:05.178Z,5.50
2018-05-03T06:50:33.608Z,5.18
2018-05-03T06:53:01.874Z,5.25
2018-05-03T06:55:29.986Z,4.90
2018-05-03T06:57:58.527Z,4.32
2018-05-03T07:00:26.693Z,4.78
2018-05-03T07:02:54.863Z,4.50
2018-05-03T07:05:23.029Z,4.30
2018-05-03T07:07:51.199Z,4.07
2018-05-03T07:10:19.378Z,4.20
2018-05-03T07:12:47.562Z,3.90
2018-05-03T07:15:15.722Z,4.28
2018-05-03T07:17:45.587Z,3.78
2018-05-03T07:20:13.956Z,3.90
2018-05-03T07:22:42.377Z,4.37
2018-05-03T07:25:13.082Z,4.32
2018-05-03T07:27:39.271Z,3.90
2018-05-03T07:30:07.569Z,4.00
2018-05-03T07:32:35.856Z,3.47
2018-05-03T07:35:04.328Z,4.07
2018-05-03T07:37:32.463Z,3.80
2018-05-03T07:40:01.049Z,3.75
2018-05-03T07:42:32.218Z,3.65
2018-05-03T07:45:00.435Z,3.35
2018-05-03T07:47:28.622Z,3.45
2018-05-03T07:49:56.808Z,3.60
2018-05-03T07:52:24.962Z,3.70
2018-05-03T07:54:53.133Z,3.40
2018-05-03T07:57:21.517Z,3.67
2018-05-03T07:59:49.695Z,3.80
2018-05-03T08:02:17.864Z,3.40
2018-05-03T08:04:46.064Z,3.33
2018-05-03T08:07:14.223Z,3.58
2018-05-03T08:09:42.402Z,3.40
2018-05-03T08:12:10.559Z,3.43
2018-05-03T08:14:38.787Z,3.07
2018-05-03T08:17:06.981Z,3.30
2018-05-03T08:19:35.375Z,3.35
2018-05-03T08:22:03.573Z,2.90
2018-05-03T08:24:31.742Z,2.83
2018-05-03T08:27:00.303Z,2.65
2018-05-03T08:29:28.464Z,2.50
2018-05-03T08:31:56.633Z,2.90
2018-05-03T08:34:24.827Z,2.60
2018-05-03T08:36:53.008Z,2.65
2018-05-03T08:39:21.192Z,2.42
2018-05-03T08:41:49.383Z,2.30
2018-05-03T08:44:17.524Z,2.10
2018-05-03T08:46:45.698Z,2.40
2018-05-03T08:49:13.888Z,2.53
2018-05-03T08:51:42.039Z,2.50
2018-05-03T08:54:10.220Z,2.63
2018-05-03T08:56:38.388Z,2.40
2018-05-03T08:59:07.130Z,2.45
2018-05-03T09:01:35.395Z,2.53
2018-05-03T09:04:03.557Z,2.40
2018-05-03T09:06:31.725Z,2.60
2018-05-03T09:08:59.990Z,2.67
2018-05-03T09:11:28.179Z,2.47
2018-05-03T09:13:56.484Z,2.40
2018-05-03T09:16:24.685Z,2.45
2018-05-03T09:18:54.887Z,2.42
2018-05-03T09:21:23.017Z,2.30
2018-05-03T09:23:51.309Z,2.25
2018-05-03T09:26:19.506Z,2.22
2018-05-03T09:28:47.733Z,2.37
2018-05-03T09:31:15.891Z,2.40
2018-05-03T09:33:44.053Z,2.53
2018-05-03T09:36:12.271Z,2.50
2018-05-03T09:38:40.493Z,2.77
2018-05-03T09:41:08.722Z,2.40
2018-05-03T09:43:37.925Z,2.53
2018-05-03T09:46:08.962Z,2.70
2018-05-03T09:48:37.119Z,2.90
2018-05-03T09:51:05.310Z,3.00
2018-05-03T09:53:33.547Z,2.72
2018-05-03T09:56:01.740Z,2.37
2018-05-03T09:58:29.915Z,2.70
2018-05-03T10:00:58.110Z,2.78
2018-05-03T10:03:26.315Z,3.00
2018-05-03T10:05:54.532Z,2.72
2018-05-03T10:08:25.903Z,2.50
2018-05-03T10:10:54.106Z,2.40
2018-05-03T10:13:22.313Z,2.40
2018-05-03T10:15:50.472Z,2.80
2018-05-03T10:18:18.661Z,2.60
2018-05-03T10:20:46.846Z,2.80
2018-05-03T10:23:15.059Z,3.00
2018-05-03T10:25:43.254Z,2.80
2018-05-03T10:28:11.487Z,2.37
2018-05-03T10:30:41.327Z,2.60
2018-05-03T10:33:09.531Z,2.80
2018-05-03T10:35:37.793Z,2.50
2018-05-03T10:38:05.914Z,2.90
2018-05-03T10:40:34.699Z,2.65
2018-05-03T10:43:03.015Z,2.40
2018-05-03T10:45:31.195Z,2.80
2018-05-03T10:48:01.947Z,2.80
2018-05-03T10:50:30.135Z,2.67
2018-05-03T10:52:58.353Z,2.60
2018-05-03T10:55:27.133Z,2.40
2018-05-03T10:57:55.359Z,2.30
2018-05-03T11:00:23.555Z,2.15
2018-05-03T11:02:51.783Z,2.47
2018-05-03T11:05:20.522Z,2.30
2018-05-03T11:07:48.520Z,3.00
2018-05-03T11:10:16.727Z,2.70
2018-05-03T11:12:44.929Z,2.53
2018-05-03T11:15:13.655Z,2.33
2018-05-03T11:17:41.838Z,2.50
2018-05-03T11:20:10.038Z,2.45
2018-05-03T11:22:38.310Z,2.10
2018-05-03T11:25:06.511Z,2.20
2018-05-03T11:27:34.674Z,2.30
2018-05-03T11:30:02.927Z,2.35
2018-05-03T11:32:31.096Z,2.30
2018-05-03T11:34:59.314Z,2.05
2018-05-03T11:37:27.543Z,2.00
2018-05-03T11:39:55.715Z,2.07
2018-05-03T11:42:23.903Z,2.30
2018-05-03T11:44:52.095Z,2.03
2018-05-03T11:47:20.260Z,2.20
2018-05-03T11:49:48.576Z,2.00
2018-05-03T11:52:16.713Z,2.10
2018-05-03T11:54:44.885Z,2.15
2018-05-03T11:57:13.080Z,2.20
2018-05-03T11:59:41.340Z,2.08
2018-05-03T12:02:09.689Z,2.20
2018-05-03T12:04:37.834Z,2.10
2018-05-03T12:07:06.042Z,2.10
2018-05-03T12:09:34.219Z,2.10
2018-05-03T12:12:02.410Z,1.98
2018-05-03T12:14:30.596Z,1.90
2018-05-03T12:16:58.828Z,1.87
2018-05-03T12:19:27.063Z,1.95
2018-05-03T12:21:55.202Z,1.90
2018-05-03T12:24:23.469Z,2.00
2018-05-03T12:26:51.627Z,1.98
2018-05-03T12:29:19.906Z,2.17
2018-05-03T12:31:48.120Z,2.27
2018-05-03T12:34:16.302Z,2.10
2018-05-03T12:36:44.467Z,2.20
2018-05-03T12:39:12.668Z,2.20
2018-05-03T12:41:40.847Z,1.90
2018-05-03T12:44:09.069Z,2.10
2018-05-03T12:46:37.242Z,2.10
2018-05-03T12:49:05.461Z,1.92
2018-05-03T12:51:33.626Z,2.20
2018-05-03T12:54:01.781Z,1.90
2018-05-03T12:56:29.942Z,2.10
2018-05-03T12:58:58.123Z,2.20
2018-05-03T13:01:26.693Z,2.00
2018-05-03T13:03:54.888Z,1.70
2018-05-03T13:06:23.088Z,1.83
2018-05-03T13:08:51.297Z,1.73
2018-05-03T13:11:19.492Z,1.98
2018-05-03T13:13:47.711Z,1.80
2018-05-03T13:16:15.917Z,2.00
2018-05-03T13:18:44.112Z,1.87
2018-05-03T13:21:12.377Z,1.98
2018-05-03T13:23:40.574Z,1.83
2018-05-03T13:26:08.744Z,1.83
2018-05-03T13:28:36.927Z,2.08
2018-05-03T13:31:05.111Z,2.20
2018-05-03T13:33:33.343Z,1.50
2018-05-03T13:36:01.492Z,1.60
2018-05-03T13:38:29.650Z,1.55
2018-05-03T13:40:57.924Z,1.50
2018-05-03T13:43:26.046Z,1.70
2018-05-03T13:45:54.244Z,1.77
2018-05-03T13:48:22.436Z,1.62
2018-05-03T13:50:50.611Z,1.80
2018-05-03T13:53:18.943Z,1.75
2018-05-03T13:55:47.049Z,1.70
2018-05-03T13:58:15.219Z,1.60
2018-05-03T14:00:43.512Z,1.70
2018-05-03T14:03:11.690Z,1.50
2018-05-03T14:05:39.874Z,1.80
2018-05-03T14:08:08.043Z,1.60
2018-05-03T14:10:36.311Z,1.67
2018-05-03T14:13:04.542Z,1.60
2018-05-03T14:15:32.705Z,1.60
2018-05-03T14:18:00.891Z,1.40
2018-05-03T14:20:29.173Z,1.58
2018-05-03T14:22:57.264Z,1.70
2018-05-03T14:25:25.434Z,1.53
2018-05-03T14:27:53.612Z,1.58
2018-05-03T14:30:21.787Z,1.67
2018-05-03T14:32:49.972Z,1.77
2018-05-03T14:35:18.151Z,1.80
2018-05-03T14:37:46.358Z,1.70
2018-05-03T14:40:14.531Z,1.87
2018-05-03T14:42:42.747Z,1.87
2018-05-03T14:45:10.925Z,2.00
2018-05-03T14:47:39.102Z,2.00
2018-05-03T14:50:07.304Z,1.77
2018-05-03T14:52:35.461Z,1.58
2018-05-03T14:55:03.629Z,1.65
2018-05-03T14:57:31.826Z,1.75
2018-05-03T14:59:59.973Z,1.80
2018-05-03T15:02:28.140Z,1.62
2018-05-03T15:04:56.317Z,1.75
2018-05-03T15:07:24.505Z,1.60
2018-05-03T15:09:52.713Z,1.80
2018-05-03T15:12:21.633Z,1.65
2018-05-03T15:14:49.843Z,1.80
2018-05-03T15:17:18.007Z,1.80
2018-05-03T15:19:46.178Z,1.70
2018-05-03T15:22:14.339Z,2.10
2018-05-03T15:24:42.680Z,1.80
2018-05-03T15:27:10.848Z,2.25
2018-05-03T15:29:39.021Z,2.15
2018-05-03T15:32:07.222Z,1.92
2018-05-03T15:34:35.405Z,2.10
2018-05-03T15:37:03.588Z,2.22
2018-05-03T15:39:31.764Z,2.22
2018-05-03T15:41:59.932Z,2.30
2018-05-03T15:44:28.111Z,2.00
2018-05-03T15:46:56.300Z,2.00
2018-05-03T15:49:24.462Z,2.00
2018-05-03T15:51:52.635Z,2.10
2018-05-03T15:54:20.792Z,2.12
2018-05-03T15:56:48.988Z,2.10
2018-05-03T15:59:17.170Z,1.92
2018-05-03T16:01:45.353Z,1.80
2018-05-03T16:04:13.501Z,2.10
2018-05-03T16:06:41.678Z,1.95
2018-05-03T16:09:09.840Z,1.92
2018-05-03T16:11:38.022Z,2.00
2018-05-03T16:14:06.218Z,1.85
2018-05-03T16:16:34.375Z,1.95
2018-05-03T16:19:02.618Z,1.57
2018-05-03T16:21:30.742Z,1.65
2018-05-03T16:23:58.916Z,2.10
2018-05-03T16:26:27.090Z,2.00
2018-05-03T16:28:55.261Z,1.98
2018-05-03T16:31:23.422Z,1.90
2018-05-03T16:33:51.616Z,2.07
2018-05-03T16:36:19.809Z,2.00
2018-05-03T16:38:47.959Z,1.67
2018-05-03T16:41:16.154Z,1.80
2018-05-03T16:43:44.334Z,1.70
2018-05-03T16:46:12.485Z,2.00
2018-05-03T16:48:40.728Z,2.28
2018-05-03T16:51:08.910Z,2.03
2018-05-03T16:53:37.108Z,1.87
2018-05-03T16:56:05.272Z,1.83
2018-05-03T16:58:33.442Z,1.77
2018-05-03T17:01:01.632Z,1.83
2018-05-03T17:03:29.783Z,1.73
2018-05-03T17:05:57.975Z,2.00
2018-05-03T17:08:26.256Z,1.80
2018-05-03T17:10:54.439Z,1.92
2018-05-03T17:13:22.584Z,1.75
2018-05-03T17:15:50.789Z,1.92
2018-05-03T17:18:18.988Z,1.73
2018-05-03T17:20:47.161Z,1.90
2018-05-03T17:23:15.337Z,1.90
2018-05-03T17:25:43.509Z,1.85
2018-05-03T17:28:11.711Z,2.05
2018-05-03T17:30:39.888Z,1.80
2018-05-03T17:33:08.060Z,1.70
2018-05-03T17:35:36.231Z,1.90
2018-05-03T17:38:04.430Z,1.70
2018-05-03T17:40:32.635Z,1.90
2018-05-03T17:43:00.873Z,1.80
2018-05-03T17:45:29.064Z,1.77
2018-05-03T17:47:57.246Z,1.70
2018-05-03T17:50:25.445Z,1.80
2018-05-03T17:52:53.621Z,1.67
2018-05-03T17:55:21.796Z,1.80
2018-05-03T17:57:49.970Z,1.70
2018-05-03T18:00:18.131Z,1.50
2018-05-03T18:02:46.362Z,1.35
2018-05-03T18:05:14.564Z,1.70
2018-05-03T18:07:42.719Z,1.50
2018-05-03T18:10:10.880Z,1.70
2018-05-03T18:12:39.091Z,1.30
2018-05-03T18:15:07.263Z,1.50
2018-05-03T18:17:35.459Z,1.50
2018-05-03T18:20:03.674Z,1.40
2018-05-03T18:22:31.886Z,1.40
2018-05-03T18:25:00.066Z,1.40
2018-05-03T18:27:28.246Z,1.30
2018-05-03T18:29:56.401Z,1.10
2018-05-03T18:32:24.574Z,1.40
2018-05-03T18:34:52.732Z,1.30
2018-05-03T18:37:20.899Z,1.10
2018-05-03T18:39:49.066Z,1.30
2018-05-03T18:42:17.197Z,1.00
2018-05-03T18:44:45.404Z,1.25
2018-05-03T18:47:13.564Z,1.20
2018-05-03T18:49:41.818Z,1.17
2018-05-03T18:52:10.005Z,1.17
2018-05-03T18:54:38.148Z,1.20
2018-05-03T18:57:06.234Z,1.00
2018-05-03T18:59:34.456Z,1.30
2018-05-03T19:02:02.573Z,1.20
2018-05-03T19:04:30.737Z,1.15
2018-05-03T19:06:58.933Z,1.05
2018-05-03T19:09:27.123Z,1.00
2018-05-03T19:11:55.484Z,1.20
2018-05-03T19:14:23.535Z,1.37
2018-05-03T19:16:51.732Z,1.20
2018-05-03T19:19:19.896Z,1.30
2018-05-03T19:21:48.085Z,1.00
2018-05-03T19:24:16.300Z,1.30
2018-05-03T19:26:44.481Z,1.10
2018-05-03T19:29:12.648Z,1.35
2018-05-03T19:31:40.832Z,1.10
2018-05-03T19:34:09.005Z,1.05
2018-05-03T19:36:37.192Z,1.20
2018-05-03T19:39:05.689Z,1.42
2018-05-03T19:41:33.824Z,1.20
2018-05-03T19:44:01.968Z,1.40
2018-05-03T19:46:30.142Z,1.30
2018-05-03T19:48:58.318Z,1.12
2018-05-03T19:51:26.519Z,1.30
2018-05-03T19:53:54.708Z,1.25
2018-05-03T19:56:22.898Z,1.33
2018-05-03T19:58:51.097Z,1.30
2018-05-03T20:01:19.242Z,1.33
2018-05-03T20:03:47.446Z,1.40
2018-05-03T20:06:15.602Z,1.17
2018-05-03T20:08:43.802Z,1.40
2018-05-03T20:11:11.956Z,1.25
2018-05-03T20:13:40.140Z,1.50
2018-05-03T20:16:08.318Z,1.48
2018-05-03T20:18:36.498Z,1.40
2018-05-03T20:21:04.694Z,1.50
2018-05-03T20:23:32.860Z,1.70
2018-05-03T20:26:01.022Z,1.50
2018-05-03T20:28:29.164Z,1.40
2018-05-03T20:30:57.354Z,1.50
2018-05-03T20:33:25.548Z,1.60
2018-05-03T20:35:53.727Z,1.40
2018-05-03T20:38:21.922Z,1.77
2018-05-03T20:40:50.092Z,1.50
2018-05-03T20:43:18.270Z,1.57
2018-05-03T20:45:46.435Z,1.50
2018-05-03T20:48:14.612Z,1.55
2018-05-03T20:50:42.800Z,1.37
2018-05-03T20:53:10.973Z,1.45
2018-05-03T20:55:39.166Z,1.60
2018-05-03T20:58:07.305Z,1.60
2018-05-03T21:00:35.467Z,1.70
2018-05-03T21:03:03.655Z,1.65
2018-05-03T21:05:31.809Z,1.80
2018-05-03T21:07:59.986Z,1.60
2018-05-03T21:10:28.150Z,1.75
2018-05-03T21:12:56.342Z,1.87
2018-05-03T21:15:24.506Z,1.60
2018-05-03T21:17:52.710Z,1.70
2018-05-03T21:20:20.969Z,1.50
2018-05-03T21:22:49.133Z,1.83
2018-05-03T21:25:17.449Z,1.80
2018-05-03T21:27:45.634Z,1.65
2018-05-03T21:30:13.832Z,1.80
2018-05-03T21:32:42.006Z,1.90
2018-05-03T21:35:10.163Z,1.80
2018-05-03T21:37:38.335Z,1.77
2018-05-03T21:40:06.534Z,1.70
2018-05-03T21:42:34.706Z,1.77
2018-05-03T21:45:02.882Z,1.70
2018-05-03T21:47:31.043Z,1.62
2018-05-03T21:49:59.225Z,1.75
2018-05-03T21:52:27.415Z,2.10
2018-05-03T21:54:55.559Z,1.80
2018-05-03T21:57:23.741Z,1.92
2018-05-03T21:59:51.924Z,1.90
2018-05-03T22:02:20.062Z,2.15
2018-05-03T22:04:48.244Z,1.90
2018-05-03T22:07:16.415Z,2.00
2018-05-03T22:09:44.601Z,2.00
2018-05-03T22:12:12.774Z,2.30
2018-05-03T22:14:40.930Z,2.20
2018-05-03T22:17:09.122Z,1.80
2018-05-03T22:19:37.295Z,2.37
2018-05-03T22:22:05.477Z,2.17
2018-05-03T22:24:33.646Z,2.05
2018-05-03T22:27:01.962Z,2.20
2018-05-03T22:29:30.165Z,2.35
2018-05-03T22:31:58.370Z,2.35
2018-05-03T22:34:26.520Z,2.20
2018-05-03T22:36:54.716Z,2.30
2018-05-03T22:39:22.898Z,2.28
2018-05-03T22:41:51.078Z,2.13
2018-05-03T22:44:19.243Z,2.10
2018-05-03T22:46:47.425Z,2.30
2018-05-03T22:49:15.615Z,2.30
2018-05-03T22:51:43.814Z,2.25
2018-05-03T22:54:12.015Z,2.65
2018-05-03T22:56:40.210Z,2.60
2018-05-03T22:59:08.409Z,2.80
2018-05-03T23:01:36.598Z,2.72
2018-05-03T23:04:04.810Z,2.60
2018-05-03T23:06:32.956Z,2.60
2018-05-03T23:09:01.129Z,2.60
2018-05-03T23:11:29.335Z,2.58
2018-05-03T23:13:57.484Z,2.70
2018-05-03T23:16:25.695Z,2.67
2018-05-03T23:18:53.856Z,2.30
2018-05-03T23:21:22.064Z,2.45
2018-05-03T23:23:50.285Z,2.53
2018-05-03T23:26:18.459Z,2.60
2018-05-03T23:28:46.875Z,2.50
2018-05-03T23:31:15.052Z,2.58
2018-05-03T23:33:43.215Z,2.85
2018-05-03T23:36:11.361Z,3.30
2018-05-03T23:38:39.568Z,3.20
2018-05-03T23:41:07.744Z,2.92
2018-05-03T23:43:35.912Z,3.10
2018-05-03T23:46:04.123Z,3.42
2018-05-03T23:48:32.278Z,3.67
2018-05-03T23:51:00.460Z,3.53
2018-05-03T23:53:28.646Z,3.20
2018-05-03T23:55:56.803Z,3.37
2018-05-03T23:58:24.979Z,3.17
